createdAt,value
2023-03-14T00:01:31.965Z,56.37
2023-03-14T00:03:58.804Z,56.49
2023-03-14T00:06:25.950Z,56.35
2023-03-14T00:08:52.869Z,56.30
2023-03-14T00:11:22.205Z,56.34
2023-03-14T00:13:52.967Z,56.42
2023-03-14T00:16:20.830Z,56.13
2023-03-14T00:18:47.982Z,56.14
2023-03-14T00:21:15.567Z,55.90
2023-03-14T00:23:43.589Z,55.94
2023-03-14T00:26:17.567Z,55.90
2023-03-14T00:28:45.185Z,55.56
2023-03-14T00:31:15.753Z,55.44
2023-03-14T00:33:44.144Z,55.43
2023-03-14T00:36:14.753Z,55.45
2023-03-14T00:38:43.248Z,55.06
2023-03-14T00:41:16.600Z,55.43
2023-03-14T00:43:44.126Z,55.23
2023-03-14T00:46:11.312Z,55.18
2023-03-14T00:48:38.960Z,55.12
2023-03-14T00:51:08.350Z,55.19
2023-03-14T00:53:40.078Z,55.33
2023-03-14T00:56:11.414Z,55.46
2023-03-14T00:58:38.683Z,55.55
2023-03-14T01:01:15.756Z,55.45
2023-03-14T01:03:42.614Z,55.27
2023-03-14T01:06:25.656Z,55.70
2023-03-14T01:08:52.917Z,55.24
2023-03-14T01:11:28.031Z,55.24
2023-03-14T01:13:55.904Z,55.29
2023-03-14T01:16:26.688Z,55.56
2023-03-14T01:18:53.645Z,55.71
2023-03-14T01:21:28.010Z,55.67
2023-03-14T01:23:57.579Z,55.77
2023-03-14T01:26:27.654Z,55.55
2023-03-14T01:28:56.140Z,55.32
2023-03-14T01:31:24.528Z,55.23
2023-03-14T01:33:52.120Z,55.07
2023-03-14T01:36:19.851Z,55.08
2023-03-14T01:38:47.260Z,55.10
2023-03-14T01:41:24.036Z,54.98
2023-03-14T01:43:52.826Z,54.59
2023-03-14T01:46:37.007Z,54.82
2023-03-14T01:49:19.014Z,54.65
2023-03-14T01:52:08.009Z,54.58
2023-03-14T01:54:45.765Z,54.30
2023-03-14T01:57:19.814Z,54.36
2023-03-14T02:00:12.819Z,54.46
2023-03-14T02:02:51.751Z,54.28
2023-03-14T02:05:25.585Z,54.45
2023-03-14T02:08:01.319Z,54.54
2023-03-14T02:10:38.269Z,54.42
2023-03-14T02:13:06.793Z,54.63
2023-03-14T02:15:41.476Z,54.57
2023-03-14T02:18:17.759Z,54.33
2023-03-14T02:21:21.328Z,54.54
2023-03-14T02:24:04.117Z,54.52
2023-03-14T02:26:44.883Z,54.49
2023-03-14T02:29:11.797Z,54.29
2023-03-14T02:31:40.079Z,54.10
2023-03-14T02:34:07.531Z,54.16
2023-03-14T02:36:35.193Z,54.17
2023-03-14T02:39:25.922Z,53.91
2023-03-14T02:41:53.056Z,53.97
2023-03-14T02:44:20.194Z,53.99
2023-03-14T02:46:48.252Z,53.79
2023-03-14T02:49:15.738Z,53.73
2023-03-14T02:51:44.193Z,53.53
2023-03-14T02:54:11.044Z,53.29
2023-03-14T02:56:38.295Z,53.22
2023-03-14T02:59:06.316Z,53.14
2023-03-14T03:01:39.761Z,53.04
2023-03-14T03:04:06.639Z,52.89
2023-03-14T03:06:33.437Z,52.61
2023-03-14T03:09:01.424Z,52.72
2023-03-14T03:11:28.322Z,52.90
2023-03-14T03:13:55.407Z,52.46
2023-03-14T03:16:24.674Z,52.38
2023-03-14T03:18:51.683Z,52.14
2023-03-14T03:21:19.824Z,52.00
2023-03-14T03:23:46.641Z,51.90
2023-03-14T03:26:13.463Z,51.66
2023-03-14T03:28:40.698Z,51.63
2023-03-14T03:31:12.317Z,51.53
2023-03-14T03:33:40.175Z,51.55
2023-03-14T03:36:08.709Z,51.39
2023-03-14T03:38:37.708Z,51.38
2023-03-14T03:41:07.589Z,51.38
2023-03-14T03:43:34.500Z,51.26
2023-03-14T03:46:07.016Z,51.21
2023-03-14T03:48:35.254Z,51.08
2023-03-14T03:51:05.608Z,51.04
2023-03-14T03:53:34.200Z,51.08
2023-03-14T03:56:06.390Z,51.02
2023-03-14T03:58:34.393Z,50.84
2023-03-14T04:01:03.915Z,50.66
2023-03-14T04:03:30.886Z,50.79
2023-03-14T04:06:12.560Z,50.74
2023-03-14T04:08:44.476Z,50.50
2023-03-14T04:11:20.680Z,50.56
2023-03-14T04:14:05.004Z,50.50
2023-03-14T04:16:34.611Z,50.42
2023-03-14T04:19:10.917Z,50.35
2023-03-14T04:21:37.800Z,50.40
2023-03-14T04:24:05.063Z,50.38
2023-03-14T04:26:35.025Z,50.42
2023-03-14T04:29:01.943Z,50.35
2023-03-14T04:31:29.305Z,50.38
2023-03-14T04:33:56.179Z,50.27
2023-03-14T04:36:30.374Z,50.18
2023-03-14T04:39:02.863Z,50.37
2023-03-14T04:41:30.492Z,50.20
2023-03-14T04:43:57.635Z,50.20
2023-03-14T04:46:24.881Z,50.21
2023-03-14T04:48:51.752Z,50.21
2023-03-14T04:51:19.647Z,50.36
2023-03-14T04:53:46.569Z,50.32
2023-03-14T04:56:14.550Z,50.40
2023-03-14T04:58:44.944Z,50.17
2023-03-14T05:01:12.710Z,50.29
2023-03-14T05:03:58.299Z,50.26
2023-03-14T05:06:43.961Z,50.32
2023-03-14T05:09:29.446Z,50.34
2023-03-14T05:12:23.623Z,50.32
2023-03-14T05:15:10.005Z,50.35
2023-03-14T05:17:55.573Z,50.41
2023-03-14T05:20:32.642Z,50.33
2023-03-14T05:23:20.788Z,50.35
2023-03-14T05:26:05.099Z,50.25
2023-03-14T05:28:41.689Z,50.37
2023-03-14T05:31:31.206Z,50.45
2023-03-14T05:34:16.624Z,50.39
2023-03-14T05:37:15.917Z,50.35
2023-03-14T05:40:09.802Z,50.55
2023-03-14T05:42:47.926Z,50.30
2023-03-14T05:45:36.565Z,50.38
2023-03-14T05:48:22.828Z,50.44
2023-03-14T05:51:00.631Z,50.41
2023-03-14T05:53:44.548Z,50.32
2023-03-14T05:56:29.914Z,50.16
2023-03-14T05:59:05.572Z,50.16
2023-03-14T06:01:39.254Z,50.17
2023-03-14T06:04:18.119Z,49.92
2023-03-14T06:06:50.214Z,50.09
2023-03-14T06:09:19.994Z,49.77
2023-03-14T06:11:47.371Z,50.12
2023-03-14T06:14:14.178Z,49.78
2023-03-14T06:16:45.552Z,49.63
2023-03-14T06:19:12.780Z,49.67
2023-03-14T06:21:40.588Z,49.98
2023-03-14T06:24:07.848Z,49.74
2023-03-14T06:26:41.020Z,49.75
2023-03-14T06:29:07.854Z,49.75
2023-03-14T06:31:35.634Z,49.72
2023-03-14T06:34:05.781Z,49.95
2023-03-14T06:36:33.419Z,50.03
2023-03-14T06:39:00.229Z,50.05
2023-03-14T06:41:29.029Z,49.90
2023-03-14T06:43:57.165Z,50.16
2023-03-14T06:46:24.450Z,50.09
2023-03-14T06:48:51.282Z,50.12
2023-03-14T06:51:18.162Z,50.41
2023-03-14T06:53:45.098Z,50.32
2023-03-14T06:56:14.912Z,50.46
2023-03-14T06:58:42.457Z,50.37
2023-03-14T07:01:28.123Z,50.56
2023-03-14T07:04:00.483Z,50.30
2023-03-14T07:06:27.670Z,49.91
2023-03-14T07:08:54.451Z,50.02
2023-03-14T07:11:22.718Z,50.09
2023-03-14T07:13:49.573Z,49.96
2023-03-14T07:16:16.466Z,49.75
2023-03-14T07:18:43.409Z,49.87
2023-03-14T07:21:10.985Z,49.57
2023-03-14T07:23:38.714Z,49.27
2023-03-14T07:26:07.438Z,49.64
2023-03-14T07:28:35.913Z,49.59
2023-03-14T07:31:10.647Z,49.47
2023-03-14T07:33:38.786Z,49.15
2023-03-14T07:36:06.418Z,49.01
2023-03-14T07:38:33.619Z,48.86
2023-03-14T07:41:23.961Z,48.76
2023-03-14T07:44:19.673Z,48.41
2023-03-14T07:46:46.458Z,48.56
2023-03-14T07:49:13.288Z,48.48
2023-03-14T07:51:40.093Z,48.22
2023-03-14T07:54:06.904Z,48.59
2023-03-14T07:56:33.745Z,48.61
2023-03-14T07:59:00.533Z,48.54
2023-03-14T08:01:27.368Z,48.28
2023-03-14T08:03:54.546Z,47.92
2023-03-14T08:06:21.455Z,47.97
2023-03-14T08:08:48.423Z,48.22
2023-03-14T08:11:15.354Z,48.17
2023-03-14T08:13:42.169Z,48.13
2023-03-14T08:16:09.613Z,47.81
2023-03-14T08:18:36.438Z,48.13
2023-03-14T08:21:03.414Z,47.60
2023-03-14T08:23:30.301Z,47.58
2023-03-14T08:25:57.143Z,47.76
2023-03-14T08:28:24.115Z,47.29
2023-03-14T08:30:51.080Z,47.05
2023-03-14T08:33:17.879Z,46.73
2023-03-14T08:35:44.737Z,46.63
2023-03-14T08:38:11.570Z,46.29
2023-03-14T08:40:38.344Z,45.93
2023-03-14T08:43:05.171Z,46.26
2023-03-14T08:45:31.973Z,46.20
2023-03-14T08:47:59.632Z,46.14
2023-03-14T08:50:26.395Z,46.36
2023-03-14T08:52:53.280Z,46.41
2023-03-14T08:55:20.098Z,46.97
2023-03-14T08:57:47.663Z,46.82
2023-03-14T09:00:15.930Z,47.09
2023-03-14T09:02:44.077Z,47.15
2023-03-14T09:05:11.476Z,47.15
2023-03-14T09:07:40.067Z,47.12
2023-03-14T09:10:10.027Z,47.57
2023-03-14T09:12:37.024Z,47.02
2023-03-14T09:15:04.732Z,47.22
2023-03-14T09:17:31.554Z,47.11
2023-03-14T09:20:00.512Z,47.52
2023-03-14T09:22:27.651Z,47.50
2023-03-14T09:24:54.450Z,47.40
2023-03-14T09:27:21.260Z,47.31
2023-03-14T09:29:48.053Z,47.31
2023-03-14T09:32:14.918Z,47.50
2023-03-14T09:34:41.836Z,47.63
2023-03-14T09:37:08.805Z,47.69
2023-03-14T09:39:35.584Z,47.64
2023-03-14T09:42:07.446Z,47.69
2023-03-14T09:44:38.892Z,48.00
2023-03-14T09:47:10.764Z,47.95
2023-03-14T09:49:41.727Z,48.15
2023-03-14T09:52:29.492Z,48.72
2023-03-14T09:55:08.393Z,48.51
2023-03-14T09:57:37.378Z,48.06
2023-03-14T10:00:27.780Z,48.06
2023-03-14T10:03:03.126Z,47.88
2023-03-14T10:05:30.560Z,47.86
2023-03-14T10:07:57.510Z,47.47
2023-03-14T10:10:27.097Z,47.17
2023-03-14T10:13:25.174Z,47.45
2023-03-14T10:16:10.916Z,47.39
2023-03-14T10:18:37.749Z,47.43
2023-03-14T10:21:17.868Z,47.52
2023-03-14T10:23:44.738Z,47.52
2023-03-14T10:26:24.961Z,47.58
2023-03-14T10:29:04.840Z,47.79
2023-03-14T10:31:53.608Z,47.35
2023-03-14T10:34:39.126Z,47.22
2023-03-14T10:37:23.809Z,47.58
2023-03-14T10:40:00.012Z,47.27
2023-03-14T10:42:30.821Z,47.29
2023-03-14T10:45:01.733Z,47.24
2023-03-14T10:47:29.696Z,47.40
2023-03-14T10:49:58.023Z,47.63
2023-03-14T10:52:50.952Z,47.88
2023-03-14T10:55:15.916Z,47.88
2023-03-14T10:57:44.230Z,47.92
2023-03-14T11:00:24.436Z,48.10
2023-03-14T11:03:13.722Z,47.98
2023-03-14T11:05:54.707Z,47.73
2023-03-14T11:08:33.387Z,47.82
2023-03-14T11:11:16.785Z,48.48
2023-03-14T11:14:01.980Z,48.09
2023-03-14T11:16:41.122Z,48.33
2023-03-14T11:19:50.556Z,48.50
2023-03-14T11:22:44.955Z,48.51
2023-03-14T11:25:55.008Z,48.16
2023-03-14T11:28:38.431Z,48.65
2023-03-14T11:31:24.164Z,48.44
2023-03-14T11:34:14.740Z,48.64
2023-03-14T11:37:04.834Z,48.40
2023-03-14T11:39:43.567Z,48.24
2023-03-14T11:42:16.716Z,48.44
2023-03-14T11:44:49.870Z,48.51
2023-03-14T11:47:45.798Z,48.77
2023-03-14T11:50:25.648Z,48.81
2023-03-14T11:52:59.262Z,48.75
2023-03-14T11:55:35.875Z,48.89
2023-03-14T11:58:20.374Z,49.22
2023-03-14T12:00:50.199Z,49.56
2023-03-14T12:03:31.401Z,49.34
2023-03-14T12:06:24.815Z,49.22
2023-03-14T12:08:58.481Z,49.21
2023-03-14T12:11:59.507Z,49.46
2023-03-14T12:14:33.842Z,49.24
2023-03-14T12:17:22.823Z,48.85
2023-03-14T12:20:06.980Z,48.11
2023-03-14T12:22:44.921Z,47.87
2023-03-14T12:25:31.997Z,48.24
2023-03-14T12:27:58.742Z,48.06
2023-03-14T12:30:42.037Z,48.22
2023-03-14T12:33:18.228Z,46.73
2023-03-14T12:35:59.132Z,46.13
2023-03-14T12:39:06.208Z,46.30
2023-03-14T12:41:52.908Z,46.62
2023-03-14T12:44:31.474Z,45.88
2023-03-14T12:47:21.774Z,45.67
2023-03-14T12:49:53.227Z,45.41
2023-03-14T12:52:38.124Z,44.97
2023-03-14T12:55:16.316Z,44.94
2023-03-14T12:57:57.491Z,44.66
2023-03-14T13:00:57.119Z,43.38
2023-03-14T13:03:38.731Z,42.44
2023-03-14T13:06:06.428Z,41.73
2023-03-14T13:08:45.655Z,41.63
2023-03-14T13:11:21.033Z,41.60
2023-03-14T13:13:53.245Z,40.96
2023-03-14T13:16:22.573Z,41.59
2023-03-14T13:18:59.847Z,41.79
2023-03-14T13:21:28.666Z,41.53
2023-03-14T13:24:01.341Z,41.18
2023-03-14T13:26:45.393Z,41.31
2023-03-14T13:29:33.728Z,41.10
2023-03-14T13:32:13.473Z,41.09
2023-03-14T13:34:41.913Z,40.83
2023-03-14T13:37:21.238Z,39.88
2023-03-14T13:39:53.420Z,40.03
2023-03-14T13:42:20.372Z,39.89
2023-03-14T13:44:48.028Z,39.11
2023-03-14T13:47:19.294Z,39.28
2023-03-14T13:49:46.972Z,39.73
2023-03-14T13:52:32.812Z,39.63
2023-03-14T13:55:01.610Z,39.22
2023-03-14T13:57:28.626Z,38.46
2023-03-14T14:00:10.937Z,37.36
2023-03-14T14:02:40.047Z,36.60
2023-03-14T14:05:07.587Z,36.54
2023-03-14T14:07:34.622Z,36.18
2023-03-14T14:10:02.371Z,36.47
2023-03-14T14:12:43.488Z,36.42
2023-03-14T14:15:22.307Z,36.98
2023-03-14T14:17:54.147Z,36.68
2023-03-14T14:20:36.092Z,36.94
2023-03-14T14:23:32.462Z,37.48
2023-03-14T14:26:00.359Z,37.01
2023-03-14T14:28:34.689Z,36.80
2023-03-14T14:31:07.316Z,36.91
2023-03-14T14:33:46.383Z,36.89
2023-03-14T14:36:22.217Z,36.68
2023-03-14T14:39:09.197Z,36.07
2023-03-14T14:41:41.045Z,36.74
2023-03-14T14:44:08.373Z,36.86
2023-03-14T14:46:38.464Z,37.04
2023-03-14T14:49:13.794Z,37.09
2023-03-14T14:51:49.465Z,36.81
2023-03-14T14:54:20.154Z,36.79
2023-03-14T14:56:52.942Z,37.20
2023-03-14T14:59:29.498Z,37.08
2023-03-14T15:01:59.931Z,37.28
2023-03-14T15:04:27.419Z,37.49
2023-03-14T15:06:54.473Z,37.29
2023-03-14T15:09:21.368Z,36.97
2023-03-14T15:11:49.455Z,36.97
2023-03-14T15:14:16.233Z,36.27
2023-03-14T15:16:43.204Z,35.86
2023-03-14T15:19:24.818Z,35.16
2023-03-14T15:21:54.063Z,34.95
2023-03-14T15:24:21.045Z,34.73
2023-03-14T15:26:47.924Z,34.20
2023-03-14T15:29:14.877Z,33.41
2023-03-14T15:31:44.621Z,33.47
2023-03-14T15:34:12.201Z,33.72
2023-03-14T15:36:39.420Z,33.49
2023-03-14T15:39:08.124Z,32.45
2023-03-14T15:41:35.258Z,32.32
2023-03-14T15:44:02.174Z,31.80
2023-03-14T15:46:31.024Z,30.40
2023-03-14T15:48:58.207Z,30.89
2023-03-14T15:51:25.004Z,30.65
2023-03-14T15:53:52.522Z,30.82
2023-03-14T15:56:21.086Z,30.56
2023-03-14T15:58:48.086Z,30.38
2023-03-14T16:01:16.786Z,30.49
2023-03-14T16:03:46.920Z,30.57
2023-03-14T16:06:14.432Z,30.79
2023-03-14T16:08:42.987Z,31.57
2023-03-14T16:11:11.724Z,31.50
2023-03-14T16:13:39.099Z,31.99
2023-03-14T16:16:06.963Z,32.93
2023-03-14T16:18:36.948Z,33.13
2023-03-14T16:21:06.884Z,33.52
2023-03-14T16:23:35.699Z,33.83
2023-03-14T16:26:08.933Z,33.84
2023-03-14T16:28:36.546Z,34.18
2023-03-14T16:31:06.852Z,34.42
2023-03-14T16:33:34.918Z,34.46
2023-03-14T16:36:06.108Z,34.56
2023-03-14T16:38:34.309Z,34.58
2023-03-14T16:41:07.757Z,34.61
2023-03-14T16:43:37.190Z,34.88
2023-03-14T16:46:05.709Z,34.72
2023-03-14T16:48:33.211Z,34.88
2023-03-14T16:51:00.207Z,34.88
2023-03-14T16:53:29.126Z,35.47
2023-03-14T16:55:57.077Z,36.41
2023-03-14T16:58:23.919Z,37.67
2023-03-14T17:00:50.735Z,38.03
2023-03-14T17:03:18.540Z,39.23
2023-03-14T17:05:50.913Z,40.10
2023-03-14T17:08:19.550Z,40.52
2023-03-14T17:10:46.785Z,41.22
2023-03-14T17:13:14.152Z,41.43
2023-03-14T17:15:46.510Z,42.35
2023-03-14T17:18:13.392Z,42.31
2023-03-14T17:20:41.185Z,42.41
2023-03-14T17:23:08.860Z,42.76
2023-03-14T17:25:36.767Z,43.29
2023-03-14T17:28:04.684Z,43.35
2023-03-14T17:30:31.933Z,43.64
2023-03-14T17:32:58.888Z,43.62
2023-03-14T17:35:26.137Z,43.90
2023-03-14T17:37:52.960Z,43.84
2023-03-14T17:40:19.899Z,44.03
2023-03-14T17:42:47.002Z,44.34
2023-03-14T17:45:13.767Z,44.67
2023-03-14T17:47:40.569Z,44.74
2023-03-14T17:50:08.262Z,44.83
2023-03-14T17:52:36.698Z,44.97
2023-03-14T17:55:05.743Z,45.48
2023-03-14T17:57:32.642Z,45.27
2023-03-14T17:59:59.659Z,45.43
2023-03-14T18:02:26.607Z,46.01
2023-03-14T18:04:53.896Z,45.91
2023-03-14T18:07:21.034Z,46.11
2023-03-14T18:09:47.860Z,46.29
2023-03-14T18:12:14.904Z,46.07
2023-03-14T18:14:44.207Z,46.26
2023-03-14T18:17:13.250Z,45.94
2023-03-14T18:19:41.193Z,45.93
2023-03-14T18:22:08.717Z,46.30
2023-03-14T18:24:35.609Z,46.35
2023-03-14T18:27:02.449Z,46.42
2023-03-14T18:29:29.285Z,46.48
2023-03-14T18:31:58.155Z,46.11
2023-03-14T18:34:26.277Z,46.78
2023-03-14T18:36:53.378Z,46.27
2023-03-14T18:39:21.472Z,46.15
2023-03-14T18:41:48.275Z,46.22
2023-03-14T18:44:15.117Z,46.22
2023-03-14T18:46:42.399Z,46.88
2023-03-14T18:49:11.115Z,46.76
2023-03-14T18:51:37.931Z,46.53
2023-03-14T18:54:10.433Z,46.61
2023-03-14T18:56:39.472Z,46.34
2023-03-14T18:59:08.663Z,46.70
2023-03-14T19:01:36.896Z,46.32
2023-03-14T19:04:05.202Z,46.50
2023-03-14T19:06:32.999Z,46.25
2023-03-14T19:09:05.789Z,46.51
2023-03-14T19:11:32.627Z,46.44
2023-03-14T19:13:59.832Z,46.19
2023-03-14T19:16:26.956Z,46.06
2023-03-14T19:18:55.261Z,46.01
2023-03-14T19:21:34.386Z,45.76
2023-03-14T19:24:02.862Z,45.63
2023-03-14T19:26:31.049Z,45.65
2023-03-14T19:28:58.684Z,45.94
2023-03-14T19:31:26.681Z,45.84
2023-03-14T19:33:53.824Z,45.89
2023-03-14T19:36:27.319Z,46.02
2023-03-14T19:38:55.014Z,46.17
2023-03-14T19:41:24.356Z,45.74
2023-03-14T19:43:52.205Z,45.85
2023-03-14T19:46:19.381Z,46.07
2023-03-14T19:48:46.467Z,45.59
2023-03-14T19:51:15.520Z,46.22
2023-03-14T19:53:45.096Z,46.00
2023-03-14T19:56:12.484Z,45.92
2023-03-14T19:58:41.006Z,45.90
2023-03-14T20:01:09.377Z,45.73
2023-03-14T20:03:39.129Z,45.81
2023-03-14T20:06:17.971Z,45.79
2023-03-14T20:08:50.306Z,45.53
2023-03-14T20:11:20.256Z,45.59
2023-03-14T20:13:52.867Z,45.72
2023-03-14T20:16:22.075Z,45.45
2023-03-14T20:18:49.425Z,45.39
2023-03-14T20:21:16.302Z,45.57
2023-03-14T20:23:44.451Z,45.74
2023-03-14T20:26:14.637Z,45.62
2023-03-14T20:28:42.630Z,45.36
2023-03-14T20:31:09.917Z,45.28
2023-03-14T20:33:42.769Z,45.33
2023-03-14T20:36:12.802Z,45.44
2023-03-14T20:38:45.059Z,45.82
2023-03-14T20:41:13.242Z,45.52
2023-03-14T20:43:43.412Z,45.66
2023-03-14T20:46:14.121Z,45.79
2023-03-14T20:48:46.533Z,45.68
2023-03-14T20:51:14.767Z,45.87
2023-03-14T20:53:42.655Z,45.89
2023-03-14T20:56:12.231Z,45.52
2023-03-14T20:58:39.384Z,45.51
2023-03-14T21:01:06.305Z,46.02
2023-03-14T21:03:33.293Z,46.03
2023-03-14T21:06:00.185Z,45.94
2023-03-14T21:08:27.101Z,45.79
2023-03-14T21:10:55.950Z,46.14
2023-03-14T21:13:24.211Z,46.06
2023-03-14T21:15:51.230Z,45.84
2023-03-14T21:18:18.507Z,46.45
2023-03-14T21:20:45.489Z,46.57
2023-03-14T21:23:13.053Z,46.74
2023-03-14T21:25:43.157Z,46.54
2023-03-14T21:28:12.390Z,46.59
2023-03-14T21:30:39.754Z,46.69
2023-03-14T21:33:06.603Z,46.78
2023-03-14T21:35:33.650Z,47.36
2023-03-14T21:38:00.683Z,47.36
2023-03-14T21:40:27.606Z,47.17
2023-03-14T21:42:55.520Z,47.40
2023-03-14T21:45:26.550Z,47.25
2023-03-14T21:47:55.020Z,47.51
2023-03-14T21:50:23.556Z,47.49
2023-03-14T21:52:56.508Z,47.53
2023-03-14T21:55:25.151Z,47.84
2023-03-14T21:57:54.876Z,47.98
2023-03-14T22:00:22.266Z,48.05
2023-03-14T22:03:11.629Z,48.37
2023-03-14T22:05:43.212Z,48.49
2023-03-14T22:08:10.277Z,48.70
2023-03-14T22:10:42.970Z,48.33
2023-03-14T22:13:09.774Z,48.09
2023-03-14T22:15:36.586Z,48.28
2023-03-14T22:18:03.968Z,48.23
2023-03-14T22:20:30.776Z,48.39
2023-03-14T22:22:57.590Z,48.80
2023-03-14T22:25:24.408Z,48.79
2023-03-14T22:27:51.226Z,48.96
2023-03-14T22:30:18.213Z,49.26
2023-03-14T22:32:45.218Z,49.55
2023-03-14T22:35:12.088Z,49.96
2023-03-14T22:37:41.375Z,50.26
2023-03-14T22:40:09.427Z,50.37
2023-03-14T22:42:36.225Z,50.21
2023-03-14T22:45:03.338Z,50.20
2023-03-14T22:47:30.184Z,50.73
2023-03-14T22:49:57.042Z,50.46
2023-03-14T22:52:23.879Z,50.57
2023-03-14T22:54:55.499Z,50.75
2023-03-14T22:57:22.354Z,50.85
2023-03-14T22:59:49.388Z,50.91
2023-03-14T23:02:16.272Z,51.09
2023-03-14T23:04:43.041Z,51.29
2023-03-14T23:07:09.862Z,51.28
2023-03-14T23:09:39.455Z,51.40
2023-03-14T23:12:06.543Z,51.44
2023-03-14T23:14:33.699Z,51.68
2023-03-14T23:17:00.558Z,51.91
2023-03-14T23:19:27.382Z,52.09
2023-03-14T23:21:55.011Z,52.19
2023-03-14T23:24:21.914Z,52.18
2023-03-14T23:26:48.826Z,52.43
2023-03-14T23:29:15.630Z,52.18
2023-03-14T23:31:42.491Z,52.53
2023-03-14T23:34:09.749Z,52.70
2023-03-14T23:36:37.203Z,52.45
2023-03-14T23:39:06.720Z,52.57
2023-03-14T23:41:34.755Z,52.44
2023-03-14T23:44:04.609Z,52.42
2023-03-14T23:46:31.543Z,52.39
2023-03-14T23:48:58.594Z,52.00
2023-03-14T23:51:25.513Z,52.15
2023-03-14T23:53:52.691Z,52.07
2023-03-14T23:56:19.548Z,52.07
2023-03-14T23:58:46.397Z,51.92
